Time;durP1;ratioP1;P1;durP2;ratioP2;P2;SDS_P1;SDS_P2;PMS_P1;PMS_P2;Temp;Humidity;BMP_temperature;BMP_pressure;BME280_temperature;BME280_humidity;BME280_pressure;Samples;Min_cycle;Max_cycle;Signal;HPM_P1;HPM_P2
2024/01/11 00:00:03;;;;;;;17.17;9.98;;;-5.20;99.90;;;;;;6147090;23;20181;-86
2024/01/11 00:02:30;;;;;;;17.15;10.25;;;-5.10;99.90;;;;;;6143145;23;20236;-84
2024/01/11 00:04:58;;;;;;;16.60;9.40;;;-5.10;99.90;;;;;;6141477;23;20208;-84
2024/01/11 00:07:25;;;;;;;17.50;10.48;;;-5.10;15.20;;;;;;6141000;23;20189;-86
2024/01/11 00:09:52;;;;;;;19.77;11.55;;;-5.00;1.00;;;;;;6138662;23;20212;-85
2024/01/11 00:12:19;;;;;;;15.95;10.55;;;-5.10;1.00;;;;;;6139082;23;20205;-85
2024/01/11 00:14:46;;;;;;;12.55;8.70;;;-5.10;1.00;;;;;;6150061;23;20196;-83
2024/01/11 00:17:12;;;;;;;12.68;9.23;;;-5.00;33.60;;;;;;6154316;23;20161;-83
2024/01/11 00:19:39;;;;;;;16.25;9.25;;;-5.00;1.00;;;;;;6154264;23;20185;-83
2024/01/11 00:22:07;;;;;;;20.35;9.23;;;-4.90;1.00;;;;;;6155941;23;20241;-83
2024/01/11 00:24:34;;;;;;;16.45;9.57;;;-5.00;1.00;;;;;;6155852;23;20161;-83
2024/01/11 00:27:01;;;;;;;17.25;10.43;;;-4.90;1.00;;;;;;6156308;23;20157;-84
2024/01/11 00:29:28;;;;;;;19.50;10.40;;;-5.00;1.00;;;;;;6155863;23;20192;-82
2024/01/11 00:31:55;;;;;;;20.08;9.65;;;-5.00;1.00;;;;;;6156055;23;20216;-82
2024/01/11 00:34:22;;;;;;;20.13;11.20;;;-5.10;1.00;;;;;;6154677;23;20201;-85
2024/01/11 00:36:50;;;;;;;19.42;11.48;;;-5.20;1.00;;;;;;6151761;23;20177;-84
2024/01/11 00:39:18;;;;;;;13.65;9.68;;;-5.30;99.90;;;;;;6145658;23;20256;-84
2024/01/11 00:41:45;;;;;;;15.38;9.05;;;-5.40;99.90;;;;;;6143910;23;20181;-84
2024/01/11 00:44:12;;;;;;;10.05;6.70;;;-5.40;1.00;;;;;;6144282;23;20572;-84
2024/01/11 00:46:39;;;;;;;8.25;6.35;;;-5.30;1.00;;;;;;6143748;23;20181;-85
2024/01/11 00:49:06;;;;;;;10.60;7.75;;;-5.40;1.00;;;;;;6143667;23;20209;-84
2024/01/11 00:51:33;;;;;;;13.82;8.65;;;-5.40;1.00;;;;;;6144720;23;20173;-85
2024/01/11 00:53:59;;;;;;;17.85;9.20;;;-5.50;1.00;;;;;;6149363;23;20188;-84
2024/01/11 00:56:27;;;;;;;13.13;8.30;;;-5.50;92.80;;;;;;6155050;23;20173;-83
2024/01/11 00:58:56;;;;;;;14.73;9.90;;;-5.50;99.90;;;;;;6155099;23;20181;-84
2024/01/11 01:01:22;;;;;;;14.60;10.23;;;-5.50;99.90;;;;;;6151305;23;20182;-84
2024/01/11 01:03:49;;;;;;;16.67;9.10;;;-5.50;99.90;;;;;;6147506;23;20185;-85
2024/01/11 01:06:17;;;;;;;16.45;10.10;;;-5.30;99.90;;;;;;6147098;23;20185;-85
2024/01/11 01:08:43;;;;;;;16.88;9.90;;;-5.30;1.00;;;;;;6147801;23;20201;-84
2024/01/11 01:11:10;;;;;;;24.60;11.98;;;-5.30;1.00;;;;;;6140600;23;20187;-85
2024/01/11 01:13:38;;;;;;;16.98;10.30;;;-5.40;99.90;;;;;;6140946;23;20181;-85
2024/01/11 01:16:06;;;;;;;14.02;10.15;;;-5.70;99.90;;;;;;6140318;23;20252;-84
2024/01/11 01:18:31;;;;;;;18.48;11.30;;;-5.70;1.00;;;;;;6140003;23;20201;-85
2024/01/11 01:20:58;;;;;;;19.10;12.37;;;-5.80;1.00;;;;;;6145424;23;20212;-84
2024/01/11 01:23:25;;;;;;;14.75;10.55;;;-5.70;9.60;;;;;;6140635;23;20416;-85
2024/01/11 01:25:52;;;;;;;17.80;10.35;;;-5.70;1.00;;;;;;6137049;23;20208;-86
2024/01/11 01:28:19;;;;;;;18.48;10.55;;;-5.80;13.70;;;;;;6138228;23;20200;-85
2024/01/11 01:30:47;;;;;;;18.13;10.25;;;-5.80;99.90;;;;;;6138417;23;20507;-85
2024/01/11 01:33:14;;;;;;;15.85;10.93;;;-5.90;99.90;;;;;;6139584;23;20566;-85
2024/01/11 01:35:41;;;;;;;20.02;12.07;;;-5.90;1.00;;;;;;6146676;23;20201;-85
2024/01/11 01:38:08;;;;;;;19.40;11.77;;;-5.90;1.00;;;;;;6133943;23;20228;-84
2024/01/11 01:40:35;;;;;;;15.48;10.25;;;-5.90;1.00;;;;;;6135328;23;20208;-86
2024/01/11 01:43:07;;;;;;;18.08;9.95;;;-5.90;1.00;;;;;;6134563;23;20182;-85
2024/01/11 01:45:34;;;;;;;10.48;8.30;;;-5.80;1.00;;;;;;6134594;23;20480;-85
2024/01/11 01:48:03;;;;;;;13.82;9.32;;;-5.90;1.00;;;;;;6136088;23;20633;-84
2024/01/11 01:50:30;;;;;;;12.48;9.00;;;-5.80;1.00;;;;;;6137290;23;20173;-84
2024/01/11 01:52:58;;;;;;;18.73;9.13;;;-5.80;1.00;;;;;;6136691;23;20185;-84
2024/01/11 01:55:27;;;;;;;14.13;8.50;;;-5.80;1.00;;;;;;6138222;23;20249;-84
2024/01/11 01:57:55;;;;;;;15.73;9.90;;;-5.80;1.00;;;;;;6134472;23;20181;-85
2024/01/11 02:00:22;;;;;;;14.45;9.30;;;-5.80;1.00;;;;;;6135757;23;20181;-85
2024/01/11 02:03:27;;;;;;;11.30;8.57;;;-5.80;1.00;;;;;;6104766;23;20264;-90
2024/01/11 06:28:09;;;;;;;26.65;12.23;;;-3.90;99.90;;;;;;6104600;23;20239;-90
2024/01/11 06:30:38;;;;;;;27.38;13.00;;;-3.80;99.90;;;;;;6152687;23;20177;-88
2024/01/11 06:33:13;;;;;;;21.90;10.35;;;-3.60;99.90;;;;;;6152641;23;20185;-89
2024/01/11 06:36:02;;;;;;;20.65;9.90;;;-3.70;99.90;;;;;;6151524;23;20180;-89
2024/01/11 06:38:36;;;;;;;28.42;12.80;;;-3.40;99.90;;;;;;6149738;23;20191;-89
2024/01/11 06:41:03;;;;;;;26.17;11.73;;;-3.50;99.90;;;;;;6148144;23;20165;-89
2024/01/11 06:43:33;;;;;;;31.42;14.13;;;-3.40;99.90;;;;;;6149938;23;20193;-89
2024/01/11 06:46:06;;;;;;;25.77;10.75;;;-3.50;99.90;;;;;;6145608;23;20648;-88
2024/01/11 06:48:45;;;;;;;25.48;12.32;;;-3.50;99.90;;;;;;6139500;23;20251;-89
2024/01/11 06:58:04;;;;;;;;;;;;;;;;;;;;;
2024/01/11 07:01:16;;;;;;;32.38;14.07;;;-3.20;99.90;;;;;;6148694;23;20179;-90
2024/01/11 07:04:20;;;;;;;33.10;13.05;;;-3.10;99.90;;;;;;6103097;23;20200;-91
2024/01/11 07:22:31;;;;;;;34.80;12.88;;;-3.00;99.90;;;;;;5854276;24;20750;-90
2024/01/11 08:08:33;;;;;;;26.70;13.02;;;-3.00;99.90;;;;;;6182246;23;20207;-90
2024/01/11 08:35:48;;;;;;;33.42;15.07;;;-2.60;99.90;;;;;;6196560;23;20233;-90
2024/01/11 08:41:44;;;;;;;;;;;;;;;;;;;;;
2024/01/11 08:47:03;;;;;;;31.98;13.38;;;-2.50;99.90;;;;;;6162330;23;20191;-91
2024/01/11 08:59:37;;;;;;;31.80;14.10;;;-2.50;99.90;;;;;;6139657;23;20229;-90
2024/01/11 09:09:16;;;;;;;;;;;;;;;;;;;;;
2024/01/11 09:12:15;;;;;;;41.22;14.98;;;-2.40;99.90;;;;;;6151538;23;20168;-90
2024/01/11 09:20:15;;;;;;;32.20;13.50;;;-2.20;99.90;;;;;;6154188;23;20232;-91
2024/01/11 09:23:03;;;;;;;25.88;12.52;;;-2.20;99.90;;;;;;6154891;23;20197;-90
2024/01/11 09:25:34;;;;;;;34.70;16.33;;;-2.10;99.90;;;;;;6154216;23;20192;-90
2024/01/11 09:28:05;;;;;;;24.85;13.77;;;-1.40;99.90;;;;;;6155076;23;20149;-89
2024/01/11 09:30:33;;;;;;;24.35;13.20;;;-2.00;99.90;;;;;;6154876;23;20186;-89
2024/01/11 09:33:03;;;;;;;23.85;12.32;;;-2.20;99.90;;;;;;6154742;23;20184;-88
2024/01/11 09:35:30;;;;;;;32.60;14.63;;;-2.00;99.90;;;;;;6154750;23;20165;-88
2024/01/11 09:37:57;;;;;;;40.60;13.13;;;-1.80;99.90;;;;;;6154720;23;20308;-89
2024/01/11 09:40:25;;;;;;;29.70;13.38;;;-1.80;99.90;;;;;;6154637;23;20189;-90
2024/01/11 09:42:54;;;;;;;28.38;13.82;;;-1.80;99.90;;;;;;6154670;23;20216;-90
2024/01/11 09:45:23;;;;;;;31.13;13.88;;;-1.80;99.90;;;;;;6154493;23;20176;-89
2024/01/11 09:48:15;;;;;;;28.45;12.30;;;-1.80;99.90;;;;;;6146829;23;20205;-89
2024/01/11 09:50:45;;;;;;;29.88;13.48;;;-1.90;99.90;;;;;;6111839;23;20180;-90
2024/01/11 09:53:17;;;;;;;26.17;12.35;;;-1.80;99.90;;;;;;6133707;23;20201;-90
2024/01/11 09:55:47;;;;;;;27.98;14.73;;;-1.70;99.90;;;;;;6133678;23;20167;-91
2024/01/11 09:58:16;;;;;;;35.83;16.27;;;-1.80;99.90;;;;;;6134411;23;20181;-92
2024/01/11 10:00:46;;;;;;;28.83;14.07;;;-1.90;99.90;;;;;;6134515;23;20259;-89
2024/01/11 10:03:14;;;;;;;28.90;14.32;;;-2.20;99.90;;;;;;6134402;23;20538;-90
2024/01/11 10:06:01;;;;;;;34.40;17.05;;;-2.00;99.90;;;;;;6138032;23;20193;-91
2024/01/11 10:08:38;;;;;;;28.17;13.68;;;-2.00;99.90;;;;;;6137309;23;20184;-91
2024/01/11 10:11:11;;;;;;;31.23;15.77;;;-1.70;99.90;;;;;;6135462;23;20561;-91
2024/01/11 10:13:44;;;;;;;35.60;16.23;;;-1.40;99.90;;;;;;6134134;23;20577;-90
2024/01/11 10:16:13;;;;;;;35.22;15.73;;;-1.70;99.90;;;;;;6134029;23;20551;-90
2024/01/11 10:18:54;;;;;;;24.60;12.63;;;-1.80;99.90;;;;;;6144045;23;20177;-90
2024/01/11 10:21:27;;;;;;;29.15;14.60;;;-1.50;99.90;;;;;;6152966;23;20168;-88
2024/01/11 10:23:55;;;;;;;32.95;14.00;;;-1.40;99.90;;;;;;6153517;23;20204;-88
2024/01/11 10:26:25;;;;;;;29.50;13.98;;;-1.80;99.90;;;;;;6154415;23;20219;-86
2024/01/11 10:28:56;;;;;;;33.28;16.23;;;-1.70;99.90;;;;;;6151641;23;20176;-90
2024/01/11 10:31:34;;;;;;;28.90;15.70;;;-1.70;99.90;;;;;;6147861;23;20210;-90
2024/01/11 10:34:02;;;;;;;31.20;16.52;;;-1.20;99.90;;;;;;6151466;23;20193;-90
2024/01/11 10:36:36;;;;;;;32.10;16.38;;;-1.30;99.90;;;;;;6148410;23;20178;-90
2024/01/11 10:39:13;;;;;;;30.08;14.57;;;-1.20;99.90;;;;;;6135545;23;20157;-90
2024/01/11 10:41:44;;;;;;;28.65;15.00;;;-1.80;99.90;;;;;;6133914;23;20634;-90
2024/01/11 10:44:22;;;;;;;27.88;14.95;;;-1.80;99.90;;;;;;6134742;23;20172;-90
2024/01/11 10:46:51;;;;;;;33.70;13.90;;;-1.80;99.90;;;;;;6132205;23;20263;-91
2024/01/11 10:49:23;;;;;;;44.70;18.70;;;-1.90;99.90;;;;;;6131990;23;20211;-90
2024/01/11 10:51:57;;;;;;;35.88;16.58;;;-1.80;99.90;;;;;;6139902;23;20199;-89
2024/01/11 10:54:25;;;;;;;34.08;16.20;;;-1.70;99.90;;;;;;6154143;23;20152;-89
2024/01/11 10:56:52;;;;;;;33.35;16.48;;;-1.80;99.90;;;;;;6154167;23;20181;-88
2024/01/11 10:59:25;;;;;;;35.78;16.80;;;-1.80;99.90;;;;;;6154195;23;20220;-88
2024/01/11 11:01:56;;;;;;;28.10;14.27;;;-1.70;99.90;;;;;;6138883;23;20162;-89
2024/01/11 11:04:24;;;;;;;31.08;16.48;;;-1.70;99.90;;;;;;6131606;23;20169;-90
2024/01/11 11:06:55;;;;;;;35.47;16.38;;;-1.60;99.90;;;;;;6133383;23;20200;-90
2024/01/11 11:09:23;;;;;;;27.05;14.50;;;-1.60;99.90;;;;;;6134823;23;20169;-90
2024/01/11 11:11:54;;;;;;;36.58;16.45;;;-1.00;99.90;;;;;;6134330;23;20185;-89
2024/01/11 11:14:26;;;;;;;25.92;14.98;;;-1.50;94.60;;;;;;6134371;23;20158;-89
2024/01/11 11:16:54;;;;;;;26.20;14.32;;;-1.80;35.80;;;;;;6135633;23;20596;-90
2024/01/11 11:19:23;;;;;;;28.05;13.45;;;-1.80;91.80;;;;;;6133451;23;20177;-90
2024/01/11 11:21:51;;;;;;;31.17;16.63;;;-1.60;99.90;;;;;;6133259;23;20204;-89
2024/01/11 11:24:24;;;;;;;26.00;14.88;;;-2.00;89.00;;;;;;6144258;23;20172;-90
2024/01/11 11:26:57;;;;;;;40.03;18.05;;;-1.90;99.90;;;;;;6135195;23;20220;-90
2024/01/11 11:29:35;;;;;;;39.65;18.08;;;-2.00;99.90;;;;;;6133276;23;20568;-90
2024/01/11 11:32:04;;;;;;;42.22;17.83;;;-1.90;99.90;;;;;;6132183;23;20173;-89
2024/01/11 11:34:49;;;;;;;42.25;20.85;;;-1.70;99.90;;;;;;6131791;23;20188;-90
2024/01/11 11:37:30;;;;;;;36.25;15.50;;;-1.70;99.90;;;;;;6135011;23;20184;-90
2024/01/11 11:39:59;;;;;;;31.83;16.55;;;-1.80;99.90;;;;;;6131919;23;20244;-89
2024/01/11 11:42:28;;;;;;;34.35;16.52;;;-1.70;99.90;;;;;;6132161;23;20197;-89
2024/01/11 11:45:00;;;;;;;41.55;20.38;;;-1.70;99.90;;;;;;6132846;23;20540;-90
2024/01/11 11:47:37;;;;;;;39.67;16.42;;;-1.70;99.90;;;;;;6135137;23;20200;-89
2024/01/11 11:50:13;;;;;;;35.60;17.30;;;-1.70;99.90;;;;;;6134710;23;20329;-89
2024/01/11 11:52:41;;;;;;;38.58;16.35;;;-1.70;99.90;;;;;;6132108;23;20227;-89
2024/01/11 11:55:17;;;;;;;35.35;16.92;;;-1.60;99.90;;;;;;6132319;23;20184;-89
2024/01/11 11:57:47;;;;;;;42.80;18.45;;;-1.60;99.90;;;;;;6143417;23;20168;-89
2024/01/11 12:00:20;;;;;;;40.33;17.15;;;-1.60;99.90;;;;;;6141256;23;20581;-89
2024/01/11 12:02:51;;;;;;;33.95;17.15;;;-1.40;99.90;;;;;;6140052;23;20189;-89
2024/01/11 12:05:19;;;;;;;37.35;19.45;;;-1.40;99.90;;;;;;6136974;23;20174;-90
2024/01/11 12:07:47;;;;;;;34.58;18.70;;;-1.40;99.90;;;;;;6134199;23;20197;-90
2024/01/11 12:10:15;;;;;;;37.50;16.52;;;-1.30;99.90;;;;;;6134735;23;20177;-90
2024/01/11 12:12:44;;;;;;;39.78;17.85;;;-1.30;99.90;;;;;;6152510;23;20220;-89
2024/01/11 12:15:11;;;;;;;39.67;17.05;;;-1.20;99.90;;;;;;6153608;23;20196;-87
2024/01/11 12:17:42;;;;;;;40.85;19.05;;;-1.20;99.90;;;;;;6155388;23;20169;-87
2024/01/11 12:20:10;;;;;;;31.67;15.57;;;-1.20;99.90;;;;;;6155406;23;20169;-88
2024/01/11 12:22:38;;;;;;;27.55;14.35;;;-1.10;99.90;;;;;;6142648;23;20197;-90
2024/01/11 12:25:12;;;;;;;25.27;14.18;;;-0.90;99.90;;;;;;6137705;23;20683;-90
2024/01/11 12:27:48;;;;;;;30.75;15.18;;;-0.90;99.90;;;;;;6140567;23;20197;-90
2024/01/11 12:30:18;;;;;;;27.35;14.63;;;-0.90;99.90;;;;;;6148150;23;20158;-90
2024/01/11 12:32:52;;;;;;;30.13;14.77;;;-0.90;99.90;;;;;;6148140;23;20200;-90
2024/01/11 12:35:21;;;;;;;29.95;14.85;;;-0.90;99.90;;;;;;6142064;23;20157;-90
2024/01/11 12:37:54;;;;;;;28.25;15.27;;;-0.90;99.90;;;;;;6138794;23;20196;-90
2024/01/11 12:40:28;;;;;;;28.45;14.73;;;-0.50;99.90;;;;;;6136626;23;20200;-90
2024/01/11 12:42:59;;;;;;;28.73;14.50;;;-0.90;99.90;;;;;;6136279;23;20197;-90
2024/01/11 12:45:29;;;;;;;31.17;14.35;;;-0.80;99.90;;;;;;6136048;23;20556;-90
2024/01/11 12:48:08;;;;;;;30.50;15.50;;;-0.80;99.90;;;;;;6136895;23;20193;-90
2024/01/11 12:50:37;;;;;;;27.17;13.52;;;-0.70;99.90;;;;;;6135857;23;20169;-90
2024/01/11 12:53:18;;;;;;;26.30;13.82;;;-0.80;99.90;;;;;;6134537;23;20201;-90
2024/01/11 12:55:45;;;;;;;26.67;12.68;;;-0.80;99.90;;;;;;6135840;23;20228;-90
2024/01/11 12:58:18;;;;;;;26.95;14.32;;;-0.80;99.90;;;;;;6133864;23;20715;-91
2024/01/11 13:00:45;;;;;;;30.90;15.73;;;-0.20;99.90;;;;;;6135246;23;20620;-91
2024/01/11 13:03:19;;;;;;;26.67;14.07;;;-0.70;99.90;;;;;;6135172;23;20213;-90
2024/01/11 13:05:47;;;;;;;28.77;14.93;;;-0.70;99.90;;;;;;6144304;23;20172;-90
2024/01/11 13:08:16;;;;;;;26.70;14.68;;;-0.60;1.00;;;;;;6138402;23;20276;-90
2024/01/11 13:10:48;;;;;;;26.38;14.20;;;-0.50;1.00;;;;;;6136832;23;20264;-90
2024/01/11 13:13:41;;;;;;;30.13;15.60;;;-0.70;99.90;;;;;;6136238;23;20193;-89
2024/01/11 13:16:15;;;;;;;28.38;14.07;;;-0.60;99.90;;;;;;6149041;23;20172;-88
2024/01/11 13:18:46;;;;;;;25.25;12.02;;;-0.60;1.00;;;;;;6145252;23;20165;-90
2024/01/11 13:21:16;;;;;;;27.98;13.45;;;-0.50;1.00;;;;;;6148752;23;20189;-90
2024/01/11 13:23:46;;;;;;;30.25;15.88;;;-0.20;1.00;;;;;;6144133;23;20346;-90
2024/01/11 13:26:13;;;;;;;25.85;14.73;;;-0.10;1.00;;;;;;6149614;23;20180;-90
2024/01/11 13:28:45;;;;;;;32.42;16.30;;;-0.50;1.00;;;;;;6154396;23;20208;-88
2024/01/11 13:31:16;;;;;;;37.10;18.15;;;-0.50;99.90;;;;;;6151830;23;20180;-90
2024/01/11 13:33:46;;;;;;;36.20;17.63;;;-0.70;99.90;;;;;;6149521;23;20197;-90
2024/01/11 13:36:24;;;;;;;39.67;17.67;;;-0.70;1.00;;;;;;6144660;23;20157;-90
2024/01/11 13:38:51;;;;;;;38.28;17.50;;;-0.80;1.00;;;;;;6140870;23;20193;-89
2024/01/11 13:41:22;;;;;;;42.53;18.33;;;-0.80;1.00;;;;;;6147644;23;20181;-89
2024/01/11 13:43:49;;;;;;;41.88;18.42;;;-0.90;1.00;;;;;;6153420;23;20188;-88
2024/01/11 13:46:19;;;;;;;29.42;15.15;;;-0.40;1.00;;;;;;6150435;23;20173;-89
2024/01/11 13:48:48;;;;;;;37.13;14.98;;;-0.80;1.00;;;;;;6143966;23;20189;-89
2024/01/11 13:51:15;;;;;;;27.00;14.85;;;-0.80;1.00;;;;;;6137323;23;20177;-90
2024/01/11 13:53:43;;;;;;;27.83;14.75;;;-0.30;1.00;;;;;;6135106;23;20232;-90
2024/01/11 13:56:13;;;;;;;29.67;16.23;;;-0.70;1.00;;;;;;6136765;23;20174;-90
2024/01/11 13:58:54;;;;;;;32.28;16.08;;;-0.40;1.00;;;;;;6134793;23;20180;-90
2024/01/11 14:01:24;;;;;;;22.63;13.75;;;-0.20;1.00;;;;;;6138092;23;20225;-90
2024/01/11 14:03:52;;;;;;;26.85;12.32;;;-0.60;1.00;;;;;;6142841;23;20185;-90
2024/01/11 14:06:29;;;;;;;24.27;14.80;;;-0.50;1.00;;;;;;6154164;23;20172;-89
2024/01/11 14:08:59;;;;;;;22.60;13.27;;;-0.60;1.00;;;;;;6144731;23;20224;-90
2024/01/11 14:11:37;;;;;;;24.13;12.70;;;0.00;1.00;;;;;;6138672;23;20153;-89
2024/01/11 14:14:20;;;;;;;20.70;11.40;;;-0.40;1.00;;;;;;6144912;23;20252;-90
2024/01/11 14:17:01;;;;;;;;;;;;;;;;;;;;;
2024/01/11 14:19:44;;;;;;;28.13;13.80;;;-0.50;1.00;;;;;;6154301;23;20209;-88
2024/01/11 14:22:17;;;;;;;22.38;12.48;;;-0.40;1.00;;;;;;6152555;23;20244;-89
2024/01/11 14:24:46;;;;;;;22.90;13.23;;;-0.40;1.00;;;;;;6146028;23;20168;-89
2024/01/11 14:27:16;;;;;;;19.88;11.35;;;-0.50;1.00;;;;;;6144569;23;20176;-89
2024/01/11 14:29:45;;;;;;;22.15;11.98;;;-0.50;1.00;;;;;;6154120;23;20154;-89
2024/01/11 14:32:15;;;;;;;24.85;12.65;;;0.00;1.00;;;;;;6154245;23;20186;-88
2024/01/11 14:35:03;;;;;;;19.15;11.30;;;-0.40;1.00;;;;;;6152372;23;20161;-91
2024/01/11 14:37:38;;;;;;;18.33;10.80;;;-0.40;1.00;;;;;;6149381;23;20168;-90
2024/01/11 14:40:12;;;;;;;18.48;9.65;;;-0.40;1.00;;;;;;6145957;23;20408;-90
2024/01/11 14:42:42;;;;;;;22.80;11.90;;;-0.40;1.00;;;;;;6141445;23;20189;-91
2024/01/11 14:45:12;;;;;;;23.02;12.10;;;-0.40;1.00;;;;;;6139108;23;20181;-90
2024/01/11 14:47:43;;;;;;;20.40;12.07;;;-0.40;99.90;;;;;;6137221;23;20215;-90
2024/01/11 14:50:17;;;;;;;20.00;12.68;;;-0.50;99.90;;;;;;6136940;23;20575;-91
2024/01/11 14:52:54;;;;;;;19.40;10.77;;;-0.40;99.90;;;;;;6134912;23;20204;-90
2024/01/11 14:55:32;;;;;;;24.92;12.25;;;-0.40;99.90;;;;;;6135083;23;20193;-90
2024/01/11 14:58:02;;;;;;;22.02;12.98;;;-0.40;99.90;;;;;;6138192;23;20168;-91
2024/01/11 15:01:03;;;;;;;20.42;12.13;;;-0.50;99.90;;;;;;6144789;23;20200;-90
2024/01/11 15:03:44;;;;;;;16.80;11.55;;;-0.50;99.90;;;;;;6149728;23;20204;-91
2024/01/11 15:06:20;;;;;;;21.00;13.15;;;-0.50;1.00;;;;;;6141177;23;20176;-91
2024/01/11 15:08:51;;;;;;;24.25;12.90;;;-0.40;1.00;;;;;;6134824;23;20193;-91
2024/01/11 15:11:27;;;;;;;18.75;12.52;;;-0.40;1.00;;;;;;6133925;23;20177;-90
2024/01/11 15:13:54;;;;;;;24.45;11.57;;;-0.20;1.00;;;;;;6136051;23;20232;-91
2024/01/11 15:16:34;;;;;;;22.05;13.50;;;-0.10;1.00;;;;;;6153055;23;20168;-90
2024/01/11 15:19:04;;;;;;;18.35;11.55;;;-0.40;1.00;;;;;;6153960;23;20165;-87
2024/01/11 15:21:51;;;;;;;18.70;11.45;;;-0.40;1.00;;;;;;6153716;23;20237;-88
2024/01/11 15:24:21;;;;;;;17.13;9.30;;;-0.30;1.00;;;;;;6153891;23;20180;-89
2024/01/11 15:26:50;;;;;;;16.30;11.05;;;-0.20;1.00;;;;;;6153567;23;20200;-91
2024/01/11 15:29:21;;;;;;;22.33;12.32;;;-0.30;1.00;;;;;;6148758;23;20197;-90
2024/01/11 15:31:53;;;;;;;18.45;11.02;;;-0.30;1.00;;;;;;6135752;23;20177;-90
2024/01/11 15:34:23;;;;;;;20.25;12.32;;;-0.40;1.00;;;;;;6134409;23;20285;-91
2024/01/11 15:36:54;;;;;;;18.92;11.32;;;-0.10;1.00;;;;;;6144401;23;20232;-90
2024/01/11 15:39:46;;;;;;;20.50;11.55;;;-0.40;1.00;;;;;;6135679;23;20183;-90
2024/01/11 15:42:14;;;;;;;20.55;10.93;;;-0.40;1.00;;;;;;6135803;23;20275;-90
2024/01/11 15:44:49;;;;;;;21.83;11.18;;;-0.40;1.00;;;;;;6136897;23;20209;-90
2024/01/11 15:47:24;;;;;;;16.95;10.48;;;-0.30;1.00;;;;;;6137148;23;20185;-89
2024/01/11 15:50:07;;;;;;;17.30;10.85;;;-0.30;1.00;;;;;;6141686;23;20212;-90
2024/01/11 15:52:41;;;;;;;22.73;12.35;;;-0.30;1.00;;;;;;6149458;23;20192;-91
2024/01/11 15:55:15;;;;;;;22.50;11.55;;;-0.20;1.00;;;;;;6147700;23;20165;-90
2024/01/11 15:57:54;;;;;;;22.08;11.48;;;-0.20;1.00;;;;;;6155488;23;20164;-90
2024/01/11 16:01:03;;;;;;;18.30;11.70;;;-0.20;1.00;;;;;;6142181;23;20168;-92
2024/01/11 16:06:48;;;;;;;18.98;12.05;;;-0.20;1.00;;;;;;6103173;23;20509;-92
2024/01/11 16:09:38;;;;;;;16.40;11.13;;;-0.20;1.00;;;;;;6135742;23;20263;-91
2024/01/11 16:15:19;;;;;;;19.10;12.00;;;-0.20;1.00;;;;;;6150104;23;20183;-90
2024/01/11 16:24:43;;;;;;;20.02;11.25;;;-0.20;1.00;;;;;;6040996;23;20221;-91
2024/01/11 16:27:44;;;;;;;20.30;11.85;;;-0.20;1.00;;;;;;6129550;23;20212;-90
2024/01/11 16:30:36;;;;;;;24.05;13.02;;;-0.30;1.00;;;;;;6147379;23;20191;-91
2024/01/11 16:33:27;;;;;;;19.55;11.75;;;-0.20;1.00;;;;;;6140050;23;20668;-91
2024/01/11 16:40:11;;;;;;;;;;;;;;;;;;;;;
2024/01/11 16:46:42;;;;;;;19.70;9.38;;;-0.20;1.00;;;;;;6114163;23;20184;-91
2024/01/11 16:49:46;;;;;;;14.90;10.23;;;-0.10;1.00;;;;;;6137416;23;20310;-91
2024/01/11 16:52:39;;;;;;;19.02;11.77;;;0.00;1.00;;;;;;6078207;23;20246;-91
2024/01/11 16:55:46;;;;;;;20.25;10.35;;;-0.10;1.00;;;;;;6076757;23;20182;-92
2024/01/11 16:58:32;;;;;;;21.75;10.13;;;-0.10;1.00;;;;;;6087504;23;20154;-91
2024/01/11 17:01:25;;;;;;;17.52;10.60;;;-0.10;1.00;;;;;;6094940;23;20236;-90
2024/01/11 17:11:04;;;;;;;19.75;11.30;;;-0.10;1.00;;;;;;6142644;23;20161;-91
2024/01/11 17:13:50;;;;;;;17.15;9.43;;;0.10;1.00;;;;;;6119066;23;20209;-91
2024/01/11 17:16:25;;;;;;;20.30;9.85;;;0.10;1.00;;;;;;6139615;23;20185;-91
2024/01/11 17:24:49;;;;;;;16.80;10.10;;;0.00;1.00;;;;;;6149503;23;20196;-89
2024/01/11 17:27:33;;;;;;;20.77;10.73;;;0.10;1.00;;;;;;6154885;23;20158;-89
2024/01/11 17:30:17;;;;;;;18.20;11.80;;;0.10;1.00;;;;;;6145209;23;20169;-91
2024/01/11 17:35:36;;;;;;;22.58;12.07;;;0.20;1.00;;;;;;6143735;23;20173;-89
2024/01/11 17:38:37;;;;;;;25.00;12.70;;;0.20;1.00;;;;;;6154573;23;20161;-89
2024/01/11 17:41:19;;;;;;;24.52;13.05;;;0.20;1.00;;;;;;6154859;23;20160;-88
2024/01/11 17:44:12;;;;;;;;;;;;;;;;;;;;;
2024/01/11 17:46:58;;;;;;;25.02;10.68;;;0.20;1.00;;;;;;6144341;23;20146;-91
2024/01/11 17:49:37;;;;;;;20.58;11.68;;;0.20;1.00;;;;;;6153610;23;20184;-90
2024/01/11 17:52:38;;;;;;;23.38;13.18;;;0.20;1.00;;;;;;6146458;23;20631;-91
2024/01/11 17:55:30;;;;;;;24.08;15.13;;;0.20;1.00;;;;;;6130991;23;20189;-91
2024/01/11 17:58:10;;;;;;;22.90;13.45;;;0.10;1.00;;;;;;6141020;23;20363;-90
2024/01/11 18:00:59;;;;;;;27.50;13.90;;;0.50;1.00;;;;;;6141120;23;20406;-90
2024/01/11 18:07:02;;;;;;;26.58;13.65;;;0.20;1.00;;;;;;6135507;23;20235;-89
2024/01/11 18:10:25;;;;;;;23.27;13.85;;;0.30;1.00;;;;;;6140494;23;20181;-91
2024/01/11 18:19:21;;;;;;;29.35;15.93;;;0.30;1.00;;;;;;5937928;24;20582;-91
2024/01/11 18:29:14;;;;;;;28.70;16.52;;;0.40;1.00;;;;;;5913546;24;20724;-90
2024/01/11 18:31:52;;;;;;;32.65;17.63;;;0.50;1.00;;;;;;6044214;23;20185;-91
2024/01/11 18:34:36;;;;;;;30.17;14.27;;;0.50;1.00;;;;;;6051345;23;20243;-91
2024/01/11 18:37:04;;;;;;;24.95;12.85;;;0.50;1.00;;;;;;6044976;23;20198;-86
2024/01/11 18:39:30;;;;;;;24.92;14.88;;;0.50;1.00;;;;;;6123253;23;20177;-86
2024/01/11 18:42:52;;;;;;;27.52;15.80;;;0.50;1.00;;;;;;6135904;23;20575;-90
2024/01/11 18:49:32;;;;;;;25.83;15.70;;;0.50;1.00;;;;;;5988905;23;20213;-91
2024/01/11 18:52:24;;;;;;;23.15;13.07;;;0.50;1.00;;;;;;6061127;23;20181;-90
2024/01/11 18:55:06;;;;;;;26.13;15.30;;;0.50;1.00;;;;;;6136264;23;20180;-91
2024/01/11 18:57:42;;;;;;;36.78;20.05;;;0.50;1.00;;;;;;6134586;23;20181;-91
2024/01/11 19:03:46;;;;;;;;;;;;;;;;;;;;;
2024/01/11 19:06:44;;;;;;;23.00;13.85;;;0.60;1.00;;;;;;6135865;23;20173;-91
2024/01/11 19:12:42;;;;;;;25.75;14.05;;;0.60;1.00;;;;;;6122652;23;20215;-90
2024/01/11 19:15:43;;;;;;;;;;;;;;;;;;;;;
2024/01/11 19:18:30;;;;;;;30.35;14.25;;;0.50;1.00;;;;;;6147448;23;20175;-90
2024/01/11 19:21:17;;;;;;;31.45;16.08;;;0.50;1.00;;;;;;6152117;23;20145;-89
2024/01/11 19:26:26;;;;;;;31.45;15.57;;;0.60;1.00;;;;;;6118415;23;20201;-90
2024/01/11 19:28:58;;;;;;;28.75;16.50;;;0.50;1.00;;;;;;6148522;23;20208;-90
2024/01/11 19:35:21;;;;;;;32.95;16.92;;;0.60;1.00;;;;;;6124199;23;20225;-88
2024/01/11 19:38:39;;;;;;;23.23;13.13;;;0.60;1.00;;;;;;5946637;23;20724;-91
2024/01/11 19:44:55;;;;;;;24.95;15.45;;;0.60;1.00;;;;;;6092927;23;20159;-89
2024/01/11 19:47:36;;;;;;;37.85;17.02;;;0.60;1.00;;;;;;6079685;23;20230;-91
2024/01/11 19:50:06;;;;;;;30.52;15.82;;;0.60;1.00;;;;;;6109383;23;20189;-89
2024/01/11 19:52:43;;;;;;;26.17;14.85;;;0.60;1.00;;;;;;6116244;23;20648;-89
2024/01/11 19:55:14;;;;;;;29.88;15.88;;;0.60;1.00;;;;;;6105753;23;20177;-89
2024/01/11 19:57:52;;;;;;;29.17;16.30;;;0.50;1.00;;;;;;6110048;23;20214;-90
2024/01/11 20:00:35;;;;;;;36.92;15.23;;;0.50;1.00;;;;;;6105189;23;20194;-90
2024/01/11 20:03:09;;;;;;;31.48;16.77;;;0.60;1.00;;;;;;6105201;23;20201;-91
2024/01/11 20:08:15;;;;;;;29.00;14.20;;;0.50;1.00;;;;;;6200540;23;20194;-87
2024/01/11 20:10:56;;;;;;;32.70;17.25;;;0.50;1.00;;;;;;6198359;23;20214;-87
2024/01/11 20:13:23;;;;;;;34.97;17.77;;;0.60;1.00;;;;;;6198858;23;20179;-88
2024/01/11 20:15:55;;;;;;;33.42;16.98;;;0.60;1.00;;;;;;6196810;23;20195;-87
2024/01/11 20:18:22;;;;;;;29.20;15.65;;;0.60;1.00;;;;;;6208048;23;20212;-88
2024/01/11 20:20:51;;;;;;;34.50;15.80;;;0.70;1.00;;;;;;6200312;23;20243;-87
2024/01/11 20:23:19;;;;;;;27.08;15.93;;;0.70;1.00;;;;;;6201776;23;20231;-88
2024/01/11 20:25:49;;;;;;;31.42;16.85;;;0.70;1.00;;;;;;6199292;23;20270;-87
2024/01/11 20:28:19;;;;;;;32.35;17.15;;;0.60;1.00;;;;;;6200198;23;20168;-87
2024/01/11 20:30:49;;;;;;;34.05;19.35;;;0.60;1.00;;;;;;6199990;23;20530;-88
2024/01/11 20:33:18;;;;;;;33.47;19.20;;;0.70;1.00;;;;;;6198353;23;20199;-87
2024/01/11 20:35:55;;;;;;;33.40;17.58;;;0.80;1.00;;;;;;6199788;23;20195;-87
2024/01/11 20:38:27;;;;;;;33.17;18.10;;;0.70;1.00;;;;;;6200768;23;20170;-87
2024/01/11 20:41:05;;;;;;;29.05;16.05;;;0.70;1.00;;;;;;6198860;23;20208;-87
2024/01/11 20:43:33;;;;;;;26.73;16.20;;;0.80;1.00;;;;;;6200867;23;20182;-88
2024/01/11 20:46:06;;;;;;;30.67;17.73;;;0.80;1.00;;;;;;6202964;23;20218;-88
2024/01/11 20:48:46;;;;;;;26.38;15.77;;;0.70;1.00;;;;;;6201797;23;20202;-89
2024/01/11 20:51:17;;;;;;;23.20;14.73;;;0.80;1.00;;;;;;6198949;23;20160;-89
2024/01/11 20:53:45;;;;;;;28.75;15.93;;;0.90;1.00;;;;;;6198178;23;20175;-88
2024/01/11 20:56:13;;;;;;;32.58;17.42;;;0.90;1.00;;;;;;6200125;23;20188;-88
2024/01/11 20:58:43;;;;;;;25.40;15.02;;;1.00;1.00;;;;;;6203087;23;20176;-87
2024/01/11 21:01:10;;;;;;;21.85;14.63;;;0.90;1.00;;;;;;6203276;23;20175;-88